York, Wisconsin
Current Conditions -  °F | °C
As of 5:54 PM on Wednesday 22 Oct 2014 (Local Time) from KMFI Reporting Station
Clear Clear  
Wind Chill: 52°   Ceiling: Unl
Heat Index: 52°   Visibility: 10mi
Dew Point: 34°   Wind: 8mph
Humidity: 50%   Direction: 140°SE
Pressure: 30.19"   Gusts: NA
Location:  44.5388°N, 90.4382°W
Report Text: KMFI 222254Z AUTO 14007KT 10SM CLR 11/01 A3019 RMK AO2 SLP234 T01110011
Loading
Personal Weather Stations






























Interactive Weather Map
Tropical Storm Tracking
New forecast layout! Learn more

10-Day Weather Forecast

Advertisements
Track Severe Weather on mobile